createdAt,value
2022-12-01T00:05:23.031Z,10.20
2022-12-01T00:10:26.451Z,10.20
2022-12-01T00:15:36.806Z,10.20
2022-12-01T00:20:40.310Z,10.20
2022-12-01T00:25:42.357Z,10.20
2022-12-01T00:30:44.449Z,10.10
2022-12-01T00:35:46.482Z,10.10
2022-12-01T00:40:49.770Z,10.10
2022-12-01T00:45:52.013Z,10.10
2022-12-01T00:50:54.921Z,10.10
2022-12-01T00:55:57.283Z,10.00
2022-12-01T01:01:01.443Z,10.00
2022-12-01T01:06:09.121Z,10.00
2022-12-01T01:16:21.146Z,9.90
2022-12-01T01:21:26.352Z,9.90
2022-12-01T01:26:31.571Z,9.90
2022-12-01T01:31:34.644Z,9.90
2022-12-01T01:36:36.667Z,9.80
2022-12-01T01:41:38.783Z,9.80
2022-12-01T01:46:40.863Z,9.80
2022-12-01T01:51:54.182Z,9.80
2022-12-01T01:57:00.030Z,9.70
2022-12-01T02:02:08.819Z,9.70
2022-12-01T02:07:12.767Z,9.70
2022-12-01T02:12:48.807Z,9.60
2022-12-01T02:18:12.726Z,9.60
2022-12-01T02:23:43.988Z,9.50
2022-12-01T02:29:06.087Z,9.70
2022-12-01T02:34:19.698Z,9.40
2022-12-01T02:44:35.131Z,9.40
2022-12-01T02:49:41.899Z,9.30
2022-12-01T02:54:45.815Z,9.20
2022-12-01T02:59:53.780Z,9.20
2022-12-01T03:05:12.679Z,9.20
2022-12-01T03:10:29.798Z,9.10
2022-12-01T03:15:37.035Z,9.10
2022-12-01T03:20:42.641Z,9.10
2022-12-01T03:25:48.596Z,9.00
2022-12-01T03:30:55.380Z,9.00
2022-12-01T03:36:07.453Z,9.00
2022-12-01T03:41:17.081Z,9.00
2022-12-01T03:46:53.828Z,9.00
2022-12-01T03:51:58.981Z,9.00
2022-12-01T03:57:10.441Z,9.00
2022-12-01T04:02:13.040Z,9.00
2022-12-01T04:07:15.375Z,9.00
2022-12-01T04:17:32.321Z,9.00
2022-12-01T04:22:34.770Z,9.00
2022-12-01T04:27:37.520Z,9.00
2022-12-01T04:32:41.230Z,9.00
2022-12-01T04:42:45.726Z,9.00
2022-12-01T04:47:47.780Z,9.00
2022-12-01T04:57:52.351Z,9.00
2022-12-01T05:02:54.389Z,9.00
2022-12-01T05:07:58.138Z,9.00
2022-12-01T05:13:00.380Z,9.00
2022-12-01T05:18:02.390Z,9.00
2022-12-01T05:23:06.012Z,9.00
2022-12-01T05:28:08.648Z,9.00
2022-12-01T05:38:13.142Z,8.90
2022-12-01T05:43:15.218Z,8.90
2022-12-01T05:48:17.922Z,8.90
2022-12-01T05:53:20.170Z,10.30
2022-12-01T05:58:22.774Z,8.90
2022-12-01T06:03:24.740Z,8.90
2022-12-01T06:08:26.763Z,8.90
2022-12-01T06:13:28.764Z,8.90
2022-12-01T06:18:36.000Z,8.90
2022-12-01T06:23:38.488Z,8.80
2022-12-01T06:33:42.971Z,8.80
2022-12-01T06:38:45.053Z,8.80
2022-12-01T06:43:47.042Z,8.80
2022-12-01T06:48:49.117Z,8.70
2022-12-01T06:54:02.139Z,8.70
2022-12-01T06:59:07.381Z,8.70
2022-12-01T07:04:09.521Z,8.70
2022-12-01T07:09:11.571Z,8.70
2022-12-01T07:14:21.995Z,8.60
2022-12-01T07:19:24.406Z,8.60
2022-12-01T07:24:26.468Z,8.50
2022-12-01T07:29:28.498Z,8.50
2022-12-01T07:34:30.580Z,8.50
2022-12-01T07:39:32.613Z,8.50
2022-12-01T07:44:34.742Z,8.40
2022-12-01T07:49:37.531Z,8.50
2022-12-01T07:54:39.549Z,8.40
2022-12-01T08:04:44.209Z,8.30
2022-12-01T08:14:49.018Z,8.30
2022-12-01T08:19:51.307Z,8.20
2022-12-01T08:24:53.532Z,8.30
2022-12-01T08:29:55.594Z,8.40
2022-12-01T08:34:57.604Z,8.40
2022-12-01T08:39:59.662Z,8.40
2022-12-01T08:45:01.888Z,8.40
2022-12-01T08:50:05.024Z,8.80
2022-12-01T08:55:07.977Z,8.40
2022-12-01T09:00:10.757Z,8.50
2022-12-01T09:05:12.780Z,8.60
2022-12-01T09:10:15.045Z,8.50
2022-12-01T09:15:17.111Z,8.60
2022-12-01T09:20:19.130Z,8.50
2022-12-01T09:25:21.192Z,8.60
2022-12-01T09:35:25.689Z,8.70
2022-12-01T09:40:35.061Z,8.80
2022-12-01T09:45:44.084Z,8.80
2022-12-01T09:55:49.389Z,8.90
2022-12-01T10:00:53.040Z,9.00
2022-12-01T10:06:26.668Z,9.10
2022-12-01T10:11:44.561Z,9.10
2022-12-01T10:17:24.381Z,9.00
2022-12-01T10:22:26.678Z,9.10
2022-12-01T10:33:04.453Z,9.10
2022-12-01T10:38:14.681Z,9.10
2022-12-01T10:43:16.735Z,9.20
2022-12-01T10:48:23.109Z,9.20
2022-12-01T10:53:33.679Z,9.20
2022-12-01T10:59:03.957Z,9.30
2022-12-01T11:04:19.467Z,9.40
2022-12-01T11:09:26.581Z,9.40
2022-12-01T11:14:45.928Z,9.40
2022-12-01T11:24:54.257Z,9.40
2022-12-01T11:30:02.729Z,9.40
2022-12-01T11:35:13.413Z,9.40
2022-12-01T11:40:29.455Z,9.50
2022-12-01T11:45:40.108Z,9.70
2022-12-01T11:50:45.017Z,9.60
2022-12-01T11:55:47.121Z,9.70
2022-12-01T12:00:55.959Z,9.70
2022-12-01T12:06:39.532Z,9.70
2022-12-01T12:17:12.684Z,9.70
2022-12-01T12:22:40.920Z,9.70
2022-12-01T12:28:03.207Z,9.60
2022-12-01T12:33:30.277Z,9.60
2022-12-01T12:38:41.341Z,9.50
2022-12-01T12:44:11.286Z,9.50
2022-12-01T12:49:47.645Z,9.50
2022-12-01T12:55:13.841Z,9.50
2022-12-01T13:00:20.112Z,9.50
2022-12-01T13:05:36.145Z,9.50
2022-12-01T13:10:49.829Z,9.50
2022-12-01T13:15:55.367Z,9.40
2022-12-01T13:20:58.396Z,9.50
2022-12-01T13:26:05.111Z,9.60
2022-12-01T13:31:10.143Z,9.60
2022-12-01T13:36:45.119Z,9.50
2022-12-01T13:41:39.620Z,9.60
2022-12-01T13:52:15.847Z,9.50
2022-12-01T13:57:27.183Z,9.50
2022-12-01T14:02:35.612Z,9.50
2022-12-01T14:07:38.718Z,9.30
2022-12-01T14:12:45.484Z,9.50
2022-12-01T14:17:57.713Z,9.30
2022-12-01T14:23:33.132Z,9.50
2022-12-01T14:29:00.292Z,9.50
2022-12-01T14:34:12.088Z,9.50
2022-12-01T14:39:31.508Z,9.40
2022-12-01T14:44:33.587Z,9.30
2022-12-01T14:49:58.416Z,9.30
2022-12-01T14:55:07.156Z,9.30
2022-12-01T15:00:16.667Z,9.20
2022-12-01T15:05:22.063Z,9.10
2022-12-01T15:10:29.076Z,9.00
2022-12-01T15:15:31.134Z,9.10
2022-12-01T15:20:42.354Z,8.80
2022-12-01T15:25:47.219Z,8.70
2022-12-01T15:30:54.499Z,8.70
2022-12-01T15:35:57.964Z,8.50
2022-12-01T15:46:29.478Z,8.20
2022-12-01T15:51:31.913Z,8.20
2022-12-01T15:56:37.681Z,8.10
2022-12-01T16:01:42.522Z,7.90
2022-12-01T16:06:57.228Z,7.80
2022-12-01T16:17:17.529Z,7.40
2022-12-01T16:22:22.264Z,7.30
2022-12-01T16:27:26.774Z,7.20
2022-12-01T16:32:43.821Z,7.00
2022-12-01T16:37:45.922Z,6.90
2022-12-01T16:42:49.831Z,6.80
2022-12-01T16:47:51.871Z,6.80
2022-12-01T16:52:53.906Z,6.70
2022-12-01T16:57:56.040Z,6.70
2022-12-01T17:02:58.398Z,6.70
2022-12-01T17:08:00.857Z,6.70
2022-12-01T17:13:03.047Z,6.70
2022-12-01T17:18:05.595Z,6.70
2022-12-01T17:23:07.801Z,6.70
2022-12-01T17:28:09.856Z,6.80
2022-12-01T17:33:12.250Z,6.80
2022-12-01T17:38:14.287Z,6.90
2022-12-01T17:43:16.378Z,7.10
2022-12-01T17:48:18.440Z,7.20
2022-12-01T17:53:20.597Z,7.30
2022-12-01T17:58:23.026Z,7.40
2022-12-01T18:03:25.109Z,7.50
2022-12-01T18:08:30.838Z,7.60
2022-12-01T18:13:39.151Z,7.60
2022-12-01T18:18:42.233Z,7.70
2022-12-01T18:23:55.518Z,7.70
2022-12-01T18:29:06.706Z,7.80
2022-12-01T18:34:11.104Z,7.80
2022-12-01T18:39:13.253Z,7.80
2022-12-01T18:44:15.377Z,7.80
2022-12-01T18:49:19.215Z,8.00
2022-12-01T18:54:21.421Z,7.90
2022-12-01T18:59:23.479Z,8.00
2022-12-01T19:04:25.566Z,7.90
2022-12-01T19:09:27.691Z,8.00
2022-12-01T19:14:31.132Z,8.00
2022-12-01T19:24:39.896Z,8.10
2022-12-01T19:29:41.992Z,8.10
2022-12-01T19:34:44.418Z,8.10
2022-12-01T19:39:46.525Z,8.10
2022-12-01T19:44:49.253Z,8.10
2022-12-01T19:49:51.446Z,8.20
2022-12-01T19:54:53.669Z,8.30
2022-12-01T19:59:55.866Z,8.20
2022-12-01T20:04:58.021Z,8.30
2022-12-01T20:10:00.091Z,8.30
2022-12-01T20:15:07.141Z,8.30
2022-12-01T20:20:10.701Z,8.20
2022-12-01T20:25:12.888Z,8.20
2022-12-01T20:30:15.254Z,8.30
2022-12-01T20:35:17.554Z,8.20
2022-12-01T20:45:22.186Z,8.20
2022-12-01T20:50:24.291Z,8.20
2022-12-01T21:00:30.010Z,8.00
2022-12-01T21:05:33.284Z,8.10
2022-12-01T21:10:42.442Z,8.20
2022-12-01T21:21:15.447Z,8.20
2022-12-01T21:26:18.983Z,8.20
2022-12-01T21:31:21.114Z,8.20
2022-12-01T21:36:27.600Z,8.20
2022-12-01T21:41:30.879Z,8.20
2022-12-01T21:46:33.088Z,8.10
2022-12-01T21:51:35.217Z,8.00
2022-12-01T21:56:37.342Z,7.80
2022-12-01T22:01:40.501Z,7.70
2022-12-01T22:06:46.462Z,7.60
2022-12-01T22:11:56.189Z,7.50
2022-12-01T22:17:10.397Z,7.50
2022-12-01T22:27:30.089Z,7.40
2022-12-01T22:32:35.876Z,7.50
2022-12-01T22:37:45.461Z,7.50
2022-12-01T22:42:47.574Z,7.60
2022-12-01T22:47:49.832Z,7.60
2022-12-01T22:52:53.230Z,7.70
2022-12-01T22:57:55.360Z,7.80
2022-12-01T23:02:59.159Z,7.80
2022-12-01T23:08:02.659Z,7.80
2022-12-01T23:13:24.536Z,7.80
2022-12-01T23:18:32.005Z,7.80
2022-12-01T23:23:36.150Z,7.80
2022-12-01T23:28:40.649Z,7.80
2022-12-01T23:38:47.183Z,7.80
2022-12-01T23:43:49.764Z,7.70
2022-12-01T23:49:17.822Z,7.70
2022-12-01T23:54:26.098Z,7.60
2022-12-01T23:59:29.974Z,7.60
